Home > Products > Valid Products > MTR

000
SAUS45 KREV 232156
MTRDRA
METAR KDRA 232152Z AUTO 22014KT 10SM CLR 29/M04 A3003 RMK AO2 SLP132
T02891039





000
SAUS45 KREV 232057
MTRDRA
METAR KDRA 232052Z AUTO VRB03KT 10SM CLR 27/M04 A3005 RMK AO2 SLP139
T02721039 58024





000
SAUS45 KREV 231957
MTRDRA
METAR KDRA 231952Z AUTO 00000KT 10SM CLR 26/M04 A3008 RMK AO2 SLP152
T02611039





000
SAUS45 KREV 231957
MTRDRA
METAR KDRA 231952Z AUTO 00000KT 10SM CLR 26/M04 A3008 RMK AO2 SLP152
T02611039





000
SAUS45 KREV 231857
MTRDRA
METAR KDRA 231852Z AUTO 00000KT 10SM CLR 24/M04 A3011 RMK AO2 SLP162
T02441044





000
SAUS45 KREV 231857
MTRDRA
METAR KDRA 231852Z AUTO 00000KT 10SM CLR 24/M04 A3011 RMK AO2 SLP162
T02441044





000
SAUS45 KREV 231757
MTRDRA
METAR KDRA 231752Z AUTO VRB03KT 10SM CLR 22/M05 A3013 RMK AO2 SLP170
T02221050 10222 20094 51006





000
SAUS45 KREV 231757
MTRDRA
METAR KDRA 231752Z AUTO VRB03KT 10SM CLR 22/M05 A3013 RMK AO2 SLP170
T02221050 10222 20094 51006





000
SAUS45 KREV 231657
MTRDRA
METAR KDRA 231652Z AUTO 34003KT 10SM CLR 20/M06 A3013 RMK AO2 SLP171
T02001056





000
SAUS45 KREV 231657
MTRDRA
METAR KDRA 231652Z AUTO 34003KT 10SM CLR 20/M06 A3013 RMK AO2 SLP171
T02001056





000
SAUS45 KREV 231557
MTRDRA
METAR KDRA 231552Z AUTO 15004KT 10SM CLR 16/M06 A3013 RMK AO2 SLP176
T01561061





000
SAUS45 KREV 231457
MTRDRA
METAR KDRA 231452Z AUTO 35005KT 10SM CLR 12/M06 A3011 RMK AO2 SLP170
T01221056 53012





000
SAUS45 KREV 231457
MTRDRA
METAR KDRA 231452Z AUTO 35005KT 10SM CLR 12/M06 A3011 RMK AO2 SLP170
T01221056 53012





000
SAUS45 KREV 231357
MTRDRA
METAR KDRA 231352Z AUTO 13005KT 10SM CLR 10/M06 A3009 RMK AO2 SLP163
T01001061





000
SAUS45 KREV 231257
MTRDRA
METAR KDRA 231252Z AUTO 35003KT 10SM CLR 11/M06 A3008 RMK AO2 SLP153
T01061061





000
SAUS45 KREV 231157
MTRDRA
METAR KDRA 231152Z AUTO 00000KT 10SM CLR 11/M06 A3007 RMK AO2 SLP150
T01111061 10156 20106 58005





000
SAUS45 KREV 231057
MTRDRA
METAR KDRA 231052Z AUTO 33003KT 10SM CLR 11/M07 A3008 RMK AO2 SLP151
T01111067





000
SAUS45 KREV 230957
MTRDRA
METAR KDRA 230952Z AUTO 33004KT 10SM CLR 11/M07 A3008 RMK AO2 SLP153
T01111067





000
SAUS45 KREV 230957
MTRDRA
METAR KDRA 230952Z AUTO 33004KT 10SM CLR 11/M07 A3008 RMK AO2 SLP153
T01111067





000
SAUS45 KREV 230857
MTRDRA
METAR KDRA 230852Z AUTO 34003KT 10SM CLR 13/M07 A3009 RMK AO2 SLP153
T01331067 58001





000
SAUS45 KREV 230757
MTRDRA
METAR KDRA 230752Z AUTO VRB03KT 10SM CLR 14/M07 A3009 RMK AO2 SLP154
T01391072 402670100





000
SAUS45 KREV 230657
MTRDRA
METAR KDRA 230652Z AUTO 08007KT 10SM CLR 14/M07 A3009 RMK AO2 SLP154
T01391067





000
SAUS45 KREV 230557
MTRDRA
METAR KDRA 230552Z AUTO 07003KT 10SM CLR 14/M07 A3009 RMK AO2 SLP155
T01441072 10256 20139 51011





000
SAUS45 KREV 230457
MTRDRA
METAR KDRA 230452Z AUTO 10005KT 10SM CLR 15/M07 A3008 RMK AO2 SLP155
T01501072





000
SAUS45 KREV 230457
MTRDRA
METAR KDRA 230452Z AUTO 10005KT 10SM CLR 15/M07 A3008 RMK AO2 SLP155
T01501072





000
SAUS45 KREV 230357
MTRDRA
METAR KDRA 230352Z AUTO 00000KT 10SM CLR 16/M07 A3006 RMK AO2 SLP152
T01561072





000
SAUS45 KREV 230357
MTRDRA
METAR KDRA 230352Z AUTO 00000KT 10SM CLR 16/M07 A3006 RMK AO2 SLP152
T01561072





000
SAUS45 KREV 230257
MTRDRA
METAR KDRA 230252Z AUTO 09007KT 10SM CLR 17/M08 A3005 RMK AO2 SLP150
T01671078 51007





000
SAUS45 KREV 230157
MTRDRA
METAR KDRA 230152Z AUTO 02004KT 10SM CLR 21/M07 A3005 RMK AO2 SLP145
T02061072





000
SAUS45 KREV 230157
MTRDRA
METAR KDRA 230152Z AUTO 02004KT 10SM CLR 21/M07 A3005 RMK AO2 SLP145
T02061072





000
SAUS45 KREV 230057
MTRDRA
METAR KDRA 230052Z AUTO 24004KT 10SM CLR 23/M07 A3004 RMK AO2 SLP139
T02331072





000
SAUS45 KREV 230057
MTRDRA
METAR KDRA 230052Z AUTO 24004KT 10SM CLR 23/M07 A3004 RMK AO2 SLP139
T02331072





000
SAUS45 KREV 222357
MTRDRA
METAR KDRA 222352Z AUTO 25003KT 10SM CLR 25/M07 A3003 RMK AO2 SLP136
T02501072 10267 20228 58003





000
SAUS45 KREV 222357
MTRDRA
METAR KDRA 222352Z AUTO 25003KT 10SM CLR 25/M07 A3003 RMK AO2 SLP136
T02501072 10267 20228 58003





000
SAUS45 KREV 222257
MTRDRA
METAR KDRA 222252Z AUTO VRB06KT 10SM CLR 26/M07 A3004 RMK AO2 SLP137
T02611072





000
SAUS45 KREV 222257
MTRDRA
METAR KDRA 222252Z AUTO VRB06KT 10SM CLR 26/M07 A3004 RMK AO2 SLP137
T02611072





000
SAUS45 KREV 222157
MTRDRA
METAR KDRA 222152Z AUTO 25007KT 10SM CLR 27/M07 A3004 RMK AO2 SLP137
T02671072





000
SAUS45 KREV 222057
MTRDRA
METAR KDRA 222052Z AUTO 23008KT 10SM CLR 26/M08 A3004 RMK AO2 SLP138
T02611078 58013





000
SAUS45 KREV 221957
MTRDRA
METAR KDRA 221952Z AUTO 23007KT 10SM CLR 26/M07 A3006 RMK AO2 SLP143
T02561067





000
SAUS45 KREV 221857
MTRDRA
METAR KDRA 221852Z AUTO VRB03KT 10SM CLR 24/M07 A3007 RMK AO2 SLP150
T02441072





000
SAUS45 KREV 221757
MTRDRA
METAR KDRA 221752Z AUTO 01004KT 10SM CLR 23/M08 A3008 RMK AO2 SLP153
T02281083 10228 20100 50005





000
SAUS45 KREV 221757
MTRDRA
METAR KDRA 221752Z AUTO 01004KT 10SM CLR 23/M08 A3008 RMK AO2 SLP153
T02281083 10228 20100 50005





000
SAUS45 KREV 221657
MTRDRA
METAR KDRA 221652Z AUTO 03013KT 10SM CLR 21/M11 A3008 RMK AO2 SLP154
T02061106





000
SAUS45 KREV 221657
MTRDRA
METAR KDRA 221652Z AUTO 03013KT 10SM CLR 21/M11 A3008 RMK AO2 SLP154
T02061106





000
SAUS45 KREV 221557
MTRDRA
METAR KDRA 221552Z AUTO 00000KT 10SM CLR 17/M06 A3008 RMK AO2 SLP158
T01671061





000
SAUS45 KREV 221557
MTRDRA
METAR KDRA 221552Z AUTO 00000KT 10SM CLR 17/M06 A3008 RMK AO2 SLP158
T01671061





000
SAUS45 KREV 221457
MTRDRA
METAR KDRA 221452Z AUTO 09003KT 10SM CLR 13/M05 A3006 RMK AO2 SLP153
T01331050 53022





000
SAUS45 KREV 221357
MTRDRA
METAR KDRA 221352Z AUTO 06005KT 10SM CLR 14/M09 A3004 RMK AO2 SLP142
T01391089





000
SAUS45 KREV 221257
MTRDRA
METAR KDRA 221252Z AUTO 00000KT 10SM CLR 11/M06 A3001 RMK AO2 SLP131
T01111056





000
SAUS45 KREV 221157
MTRDRA
METAR KDRA 221152Z AUTO 09007KT 10SM CLR 11/M04 A2999 RMK AO2 SLP124
T01061044 10150 20100 53009





000
SAUS45 KREV 221057
MTRDRA
METAR KDRA 221052Z AUTO 00000KT 10SM CLR 12/M03 A2997 RMK AO2 SLP116
T01171033





000
SAUS45 KREV 221057
MTRDRA
METAR KDRA 221052Z AUTO 00000KT 10SM CLR 12/M03 A2997 RMK AO2 SLP116
T01171033





000
SAUS45 KREV 220957
MTRDRA
METAR KDRA 220952Z AUTO 10003KT 10SM CLR 11/M03 A2996 RMK AO2 SLP112
T01111033





000
SAUS45 KREV 220957
MTRDRA
METAR KDRA 220952Z AUTO 10003KT 10SM CLR 11/M03 A2996 RMK AO2 SLP112
T01111033





000
SAUS45 KREV 220857
MTRDRA
METAR KDRA 220852Z AUTO 00000KT 10SM CLR 11/M03 A2996 RMK AO2 SLP112
T01111033 53004





000
SAUS45 KREV 220757
MTRDRA
METAR KDRA 220752Z AUTO 07003KT 10SM CLR 13/M03 A2995 RMK AO2 SLP107
T01281028 402610111





000
SAUS45 KREV 220657
MTRDRA
METAR KDRA 220652Z AUTO 01004KT 10SM CLR 13/M03 A2995 RMK AO2 SLP106
T01331028





000
SAUS45 KREV 220557
MTRDRA
METAR KDRA 220552Z AUTO 00000KT 10SM CLR 14/M04 A2995 RMK AO2 SLP107
T01391044 10244 20139 52014





000
SAUS45 KREV 220557
MTRDRA
METAR KDRA 220552Z AUTO 00000KT 10SM CLR 14/M04 A2995 RMK AO2 SLP107
T01391044 10244 20139 52014





000
SAUS45 KREV 220457
MTRDRA
METAR KDRA 220452Z AUTO 09003KT 10SM CLR 15/M04 A2993 RMK AO2 SLP103
T01501039





000
SAUS45 KREV 220457
MTRDRA
METAR KDRA 220452Z AUTO 09003KT 10SM CLR 15/M04 A2993 RMK AO2 SLP103
T01501039





000
SAUS45 KREV 220357
MTRDRA
METAR KDRA 220352Z AUTO 06003KT 10SM CLR 15/M05 A2992 RMK AO2 SLP097
T01501050





000
SAUS45 KREV 220357
MTRDRA
METAR KDRA 220352Z AUTO 06003KT 10SM CLR 15/M05 A2992 RMK AO2 SLP097
T01501050





000
SAUS45 KREV 220257
MTRDRA
METAR KDRA 220252Z AUTO 09004KT 10SM CLR 16/M04 A2990 RMK AO2 SLP095
T01611044 53008





000
SAUS45 KREV 220257
MTRDRA
METAR KDRA 220252Z AUTO 09004KT 10SM CLR 16/M04 A2990 RMK AO2 SLP095
T01611044 53008





000
SAUS45 KREV 220157
MTRDRA
METAR KDRA 220152Z AUTO 34004KT 10SM CLR 19/M04 A2990 RMK AO2 SLP090
T01941044





000
SAUS45 KREV 220057
MTRDRA
METAR KDRA 220052Z AUTO 26005KT 10SM CLR 23/M04 A2988 RMK AO2 SLP080
T02281039





000
SAUS45 KREV 212357
MTRDRA
METAR KDRA 212352Z AUTO 24008KT 10SM CLR 24/M03 A2988 RMK AO2 SLP076
T02441033 10261 20222 55002





000
SAUS45 KREV 212257
MTRDRA
METAR KDRA 212252Z AUTO 25010KT 10SM CLR 26/M02 A2987 RMK AO2 SLP072
T02561022





000
SAUS45 KREV 212257
MTRDRA
METAR KDRA 212252Z AUTO 25010KT 10SM CLR 26/M02 A2987 RMK AO2 SLP072
T02561022





000
SAUS45 KREV 212157
MTRDRA
METAR KDRA 212152Z AUTO 25011G18KT 10SM CLR 26/M01 A2988 RMK AO2
SLP073 T02611006





000
SAUS45 KREV 212157
MTRDRA
METAR KDRA 212152Z AUTO 25011G18KT 10SM CLR 26/M01 A2988 RMK AO2
SLP073 T02611006





000
SAUS45 KREV 212057
MTRDRA
METAR KDRA 212052Z AUTO 25012G18KT 10SM CLR 26/M02 A2988 RMK AO2
SLP076 T02561017 58023





000
SAUS45 KREV 211957
MTRDRA
METAR KDRA 211952Z AUTO 23010KT 10SM CLR 24/01 A2992 RMK AO2 SLP087
T02440006





000
SAUS45 KREV 211957
MTRDRA
METAR KDRA 211952Z AUTO 23010KT 10SM CLR 24/01 A2992 RMK AO2 SLP087
T02440006





000
SAUS45 KREV 211557
MTRDRA
METAR KDRA 211552Z AUTO 00000KT 10SM CLR 21/02 A2994 RMK AO2 SLP098
T02060017





000
SAUS45 KREV 211557
MTRDRA
METAR KDRA 211552Z AUTO 00000KT 10SM CLR 21/02 A2994 RMK AO2 SLP098
T02060017





000
SAUS45 KREV 211457
MTRDRA
METAR KDRA 211452Z AUTO 00000KT 10SM CLR 17/01 A2993 RMK AO2 SLP096
T01720011 53017





000
SAUS45 KREV 211357
MTRDRA
METAR KDRA 211352Z AUTO 31006KT 10SM CLR 17/01 A2990 RMK AO2 SLP087
T01670011





000
SAUS45 KREV 211257
MTRDRA
METAR KDRA 211252Z AUTO VRB03KT 10SM CLR 17/01 A2988 RMK AO2 SLP079
T01720011





000
SAUS45 KREV 211157
MTRDRA
METAR KDRA 211152Z AUTO VRB04KT 10SM CLR 19/01 A2987 RMK AO2 SLP073
T01890011 10233 20189 55005





000
SAUS45 KREV 211157
MTRDRA
METAR KDRA 211152Z AUTO VRB04KT 10SM CLR 19/01 A2987 RMK AO2 SLP073
T01890011 10233 20189 55005





000
SAUS45 KREV 211057
MTRDRA
METAR KDRA 211052Z AUTO 19015G20KT 10SM CLR 22/01 A2986 RMK AO2
SLP066 T02170006





000
SAUS45 KREV 211057
MTRDRA
METAR KDRA 211052Z AUTO 19015G20KT 10SM CLR 22/01 A2986 RMK AO2
SLP066 T02170006





000
SAUS45 KREV 210957
MTRDRA
METAR KDRA 210952Z AUTO 18010KT 10SM CLR 21/01 A2988 RMK AO2 SLP073
T02060011





000
SAUS45 KREV 210957
MTRDRA
METAR KDRA 210952Z AUTO 18010KT 10SM CLR 21/01 A2988 RMK AO2 SLP073
T02060011





000
SAUS45 KREV 210858
MTRDRA
METAR KDRA 210852Z AUTO 17008KT 10SM CLR 21/02 A2989 RMK AO2 SLP076
T02060017 51002





000
SAUS45 KREV 210757
MTRDRA
METAR KDRA 210752Z AUTO 19008KT 10SM CLR 22/02 A2989 RMK AO2 SLP076
T02170022 402940111





000
SAUS45 KREV 210657
MTRDRA
METAR KDRA 210652Z AUTO 19010KT 10SM CLR 23/03 A2989 RMK AO2 SLP076
T02280028





000
SAUS45 KREV 210557
MTRDRA
METAR KDRA 210552Z AUTO 19012KT 10SM CLR 23/03 A2989 RMK AO2 SLP075
T02330028 10278 20233 51005





000
SAUS45 KREV 210458
MTRDRA
METAR KDRA 210452Z AUTO 19011KT 10SM CLR 24/03 A2988 RMK AO2 SLP076
T02390028





000
SAUS45 KREV 210357
MTRDRA
METAR KDRA 210352Z AUTO 19010KT 10SM CLR 24/02 A2988 RMK AO2 SLP077
T02390022





000
SAUS45 KREV 210357
MTRDRA
METAR KDRA 210352Z AUTO 19010KT 10SM CLR 24/02 A2988 RMK AO2 SLP077
T02390022





000
SAUS45 KREV 210257
MTRDRA
METAR KDRA 210252Z AUTO 19010KT 10SM CLR 24/02 A2987 RMK AO2 SLP079
T02440022 53001





000
SAUS45 KREV 210257
MTRDRA
METAR KDRA 210252Z AUTO 19010KT 10SM CLR 24/02 A2987 RMK AO2 SLP079
T02440022 53001





000
SAUS45 KREV 210157
MTRDRA
METAR KDRA 210152Z AUTO 18009KT 10SM CLR 24/03 A2987 RMK AO2 SLP080
T02440028





000
SAUS45 KREV 210157
MTRDRA
METAR KDRA 210152Z AUTO 18009KT 10SM CLR 24/03 A2987 RMK AO2 SLP080
T02440028





000
SAUS45 KREV 210057
MTRDRA
METAR KDRA 210052Z AUTO 21012KT 10SM CLR 26/02 A2986 RMK AO2 SLP075
T02610022





000
SAUS45 KREV 202357
MTRDRA
METAR KDRA 202352Z AUTO 22013KT 10SM CLR 27/02 A2987 RMK AO2 PK WND
21026/2316 SLP075 T02720022 10294 20250 56011





000
SAUS45 KREV 202257
MTRDRA
METAR KDRA 202252Z AUTO 21017G22KT 10SM CLR 29/02 A2988 RMK AO2
SLP077 T02890022





000
SAUS45 KREV 202257
MTRDRA
METAR KDRA 202252Z AUTO 21017G22KT 10SM CLR 29/02 A2988 RMK AO2
SLP077 T02890022





    US Dept of Commerce
    National Oceanic and Atmospheric Administration
    National Weather Service
    1325 East West Highway
    Silver Spring, MD 20910
    Page Author: NWS Internet Services Team
Disclaimer
Information Quality
Credits
Glossary
Privacy Policy
Freedom of Information Act (FOIA)
About Us
Career Opportunities